Time;durP1;ratioP1;P1;durP2;ratioP2;P2;SDS_P1;SDS_P2;PMS_P1;PMS_P2;Temp;Humidity;BMP_temperature;BMP_pressure;BME280_temperature;BME280_humidity;BME280_pressure;Samples;Min_cycle;Max_cycle;Signal;HPM_P1;HPM_P2
2020/12/14 00:00:14;;;;;;;4.30;3.33;;;1.50;99.90;;;;;;5083944;28;20212;-79
2020/12/14 00:02:40;;;;;;;4.97;3.77;;;1.60;99.90;;;;;;5083769;28;20284;-80
2020/12/14 00:05:07;;;;;;;3.37;3.07;;;1.70;99.90;;;;;;5085433;28;20731;-78
2020/12/14 00:07:33;;;;;;;3.17;2.83;;;1.70;99.90;;;;;;5084141;28;20231;-78
2020/12/14 00:10:01;;;;;;;4.03;3.00;;;1.80;99.90;;;;;;5084509;28;20299;-78
2020/12/14 00:12:26;;;;;;;3.63;3.10;;;2.00;99.90;;;;;;5089119;28;20173;-80
2020/12/14 00:14:52;;;;;;;3.37;2.43;;;2.20;99.90;;;;;;5089050;28;20212;-78
2020/12/14 00:17:19;;;;;;;2.90;2.57;;;2.20;99.90;;;;;;5088180;28;20662;-79
2020/12/14 00:19:45;;;;;;;3.73;3.00;;;2.50;99.90;;;;;;5087841;28;20678;-78
2020/12/14 00:22:11;;;;;;;3.70;2.90;;;2.50;99.90;;;;;;5087572;28;20265;-78
2020/12/14 00:24:36;;;;;;;3.93;3.10;;;2.60;99.90;;;;;;5087270;28;20730;-78
2020/12/14 00:27:02;;;;;;;4.07;2.97;;;2.70;99.90;;;;;;5088679;28;20238;-79
2020/12/14 00:29:27;;;;;;;4.03;3.60;;;2.80;99.90;;;;;;5087760;28;20263;-78
2020/12/14 00:31:53;;;;;;;3.40;2.77;;;2.90;99.90;;;;;;5087553;28;20253;-79
2020/12/14 00:34:21;;;;;;;4.63;3.53;;;2.90;99.90;;;;;;5087263;28;20234;-81
2020/12/14 00:36:47;;;;;;;3.40;2.37;;;3.00;99.90;;;;;;5087810;28;20534;-79
2020/12/14 00:39:12;;;;;;;3.90;2.77;;;3.00;99.90;;;;;;5088670;28;20223;-80
2020/12/14 00:41:38;;;;;;;5.00;3.87;;;3.00;99.90;;;;;;5088680;28;20219;-80
2020/12/14 00:44:04;;;;;;;5.30;2.83;;;2.90;99.90;;;;;;5088778;28;20199;-78
2020/12/14 00:46:29;;;;;;;3.50;2.87;;;2.90;99.90;;;;;;5087595;28;21130;-78
2020/12/14 00:48:55;;;;;;;3.47;2.93;;;2.80;99.90;;;;;;5088278;28;20181;-78
2020/12/14 00:51:25;;;;;;;3.70;3.40;;;2.70;99.90;;;;;;5086883;28;20208;-80
2020/12/14 00:53:51;;;;;;;5.50;3.27;;;2.60;99.90;;;;;;5086723;28;20188;-80
2020/12/14 00:56:17;;;;;;;4.23;3.20;;;2.50;99.90;;;;;;5088023;28;20231;-78
2020/12/14 00:58:42;;;;;;;3.97;3.40;;;2.30;99.90;;;;;;5087049;28;20986;-78
2020/12/14 01:01:08;;;;;;;3.47;3.00;;;2.20;99.90;;;;;;5086729;28;20212;-78
2020/12/14 01:03:33;;;;;;;3.70;3.03;;;2.10;99.90;;;;;;5086874;28;20189;-78
2020/12/14 01:06:01;;;;;;;3.40;2.37;;;2.00;99.90;;;;;;5087057;28;20226;-78
2020/12/14 01:08:27;;;;;;;4.77;2.87;;;2.00;99.90;;;;;;5088048;28;20177;-79
2020/12/14 01:10:52;;;;;;;3.93;2.77;;;1.90;99.90;;;;;;5086630;28;20217;-79
2020/12/14 01:13:18;;;;;;;3.10;2.50;;;1.90;99.90;;;;;;5086500;28;20188;-79
2020/12/14 01:15:44;;;;;;;5.37;3.40;;;1.90;99.90;;;;;;5087998;28;20560;-79
2020/12/14 01:18:10;;;;;;;6.30;2.50;;;1.90;99.90;;;;;;5086760;28;20196;-78
2020/12/14 01:20:40;;;;;;;3.23;2.50;;;1.90;99.90;;;;;;5086432;28;21285;-78
2020/12/14 01:23:06;;;;;;;3.07;2.77;;;2.00;99.90;;;;;;5086822;28;20189;-79
2020/12/14 01:25:31;;;;;;;4.30;3.20;;;2.20;99.90;;;;;;5085410;28;20217;-78
2020/12/14 01:27:57;;;;;;;2.70;2.40;;;2.20;99.90;;;;;;5085937;28;20251;-79
2020/12/14 01:30:24;;;;;;;2.50;2.23;;;2.30;99.90;;;;;;5086208;28;20258;-79
2020/12/14 01:32:52;;;;;;;2.40;1.97;;;2.50;99.90;;;;;;5085586;28;20205;-80
2020/12/14 01:35:18;;;;;;;3.87;2.27;;;2.50;99.90;;;;;;5086909;28;20227;-80
2020/12/14 01:37:44;;;;;;;5.23;3.50;;;2.60;99.90;;;;;;5086023;28;20254;-80
2020/12/14 01:40:10;;;;;;;3.23;2.23;;;2.70;99.90;;;;;;5086163;28;20213;-78
2020/12/14 01:42:44;;;;;;;3.13;2.67;;;2.80;99.90;;;;;;5085660;28;20271;-78
2020/12/14 01:45:10;;;;;;;4.97;3.33;;;2.80;99.90;;;;;;5086251;28;20234;-80
2020/12/14 01:47:38;;;;;;;3.00;2.17;;;2.90;99.90;;;;;;5086441;28;20284;-79
2020/12/14 01:50:07;;;;;;;3.33;2.77;;;3.10;99.90;;;;;;5085933;28;21041;-78
2020/12/14 01:52:34;;;;;;;4.53;3.70;;;3.10;99.90;;;;;;5086311;28;21027;-78
2020/12/14 01:55:01;;;;;;;3.97;3.47;;;3.10;99.90;;;;;;5086498;28;20298;-78
2020/12/14 01:57:27;;;;;;;3.87;2.63;;;3.10;99.90;;;;;;5087180;28;20255;-79
2020/12/14 01:59:56;;;;;;;2.60;2.30;;;3.20;99.90;;;;;;5086361;28;20223;-78
2020/12/14 02:02:22;;;;;;;2.93;2.50;;;3.20;99.90;;;;;;5088011;28;20443;-78
2020/12/14 02:04:47;;;;;;;4.60;3.20;;;3.20;99.90;;;;;;5085735;28;20270;-78
2020/12/14 02:07:13;;;;;;;3.00;2.50;;;3.20;99.90;;;;;;5085956;28;20279;-80
2020/12/14 02:09:38;;;;;;;3.33;2.40;;;3.10;99.90;;;;;;5085920;28;20679;-80
2020/12/14 02:12:04;;;;;;;8.20;2.30;;;3.10;99.90;;;;;;5087652;28;20188;-79
2020/12/14 02:14:30;;;;;;;1.90;1.80;;;3.10;99.90;;;;;;5087972;28;20699;-78
2020/12/14 02:16:55;;;;;;;3.03;2.30;;;3.00;99.90;;;;;;5086586;28;20192;-78
2020/12/14 02:19:21;;;;;;;4.30;2.47;;;3.00;99.90;;;;;;5086188;28;20248;-79
2020/12/14 02:21:50;;;;;;;3.27;2.07;;;2.90;99.90;;;;;;5086362;28;20188;-78
2020/12/14 02:24:16;;;;;;;2.43;2.10;;;2.90;99.90;;;;;;5086830;28;20240;-78
2020/12/14 02:26:48;;;;;;;4.17;2.43;;;2.80;99.90;;;;;;5086473;28;20191;-79
2020/12/14 02:29:17;;;;;;;2.97;2.50;;;2.80;99.90;;;;;;5088087;28;20180;-80
2020/12/14 02:31:43;;;;;;;3.97;2.67;;;2.70;99.90;;;;;;5085286;28;20207;-80
2020/12/14 02:34:09;;;;;;;2.13;1.90;;;2.70;99.90;;;;;;5087856;28;20192;-80
2020/12/14 02:36:36;;;;;;;3.27;2.13;;;2.60;99.90;;;;;;5086405;28;20569;-78
2020/12/14 02:39:03;;;;;;;3.03;2.37;;;2.50;99.90;;;;;;5088022;28;20798;-80
2020/12/14 02:41:29;;;;;;;2.77;2.47;;;2.40;99.90;;;;;;5087875;28;20222;-78
2020/12/14 02:43:54;;;;;;;3.57;2.23;;;2.30;99.90;;;;;;5087171;28;20654;-80
2020/12/14 02:46:20;;;;;;;2.17;1.97;;;2.20;99.90;;;;;;5087671;28;20187;-79
2020/12/14 02:48:45;;;;;;;2.40;1.80;;;2.20;99.90;;;;;;5088072;28;20183;-80
2020/12/14 02:51:11;;;;;;;3.00;2.33;;;2.00;99.90;;;;;;5085933;28;20232;-78
2020/12/14 02:53:37;;;;;;;1.80;1.63;;;2.00;99.90;;;;;;5087694;28;20189;-79
2020/12/14 02:56:06;;;;;;;3.73;2.80;;;2.00;99.90;;;;;;5087662;28;20271;-80
2020/12/14 02:58:31;;;;;;;2.83;2.03;;;2.00;99.90;;;;;;5087491;28;20645;-79
2020/12/14 03:00:58;;;;;;;2.13;1.90;;;2.00;99.90;;;;;;5084651;28;20274;-79
2020/12/14 03:03:23;;;;;;;2.40;2.10;;;2.10;99.90;;;;;;5085062;28;20184;-78
2020/12/14 03:05:49;;;;;;;2.03;1.77;;;2.10;99.90;;;;;;5084623;28;20627;-79
2020/12/14 03:08:15;;;;;;;2.83;2.50;;;2.10;99.90;;;;;;5085723;28;20185;-79
2020/12/14 03:10:40;;;;;;;2.33;2.13;;;2.00;99.90;;;;;;5086440;28;20735;-79
2020/12/14 03:13:06;;;;;;;2.97;2.00;;;2.00;99.90;;;;;;5084921;28;20208;-79
2020/12/14 03:15:31;;;;;;;3.10;2.33;;;1.90;99.90;;;;;;5085242;28;20246;-79
2020/12/14 03:17:57;;;;;;;2.90;2.23;;;1.90;99.90;;;;;;5085046;28;20201;-79
2020/12/14 03:20:22;;;;;;;3.23;2.13;;;2.00;99.90;;;;;;5085878;28;20605;-79
2020/12/14 03:22:48;;;;;;;2.67;2.00;;;2.10;99.90;;;;;;5085816;28;20558;-78
2020/12/14 03:25:13;;;;;;;2.70;2.27;;;2.10;99.90;;;;;;5083983;28;20209;-79
2020/12/14 03:27:39;;;;;;;2.07;1.90;;;2.00;99.90;;;;;;5084298;28;20220;-79
2020/12/14 03:30:05;;;;;;;1.70;1.60;;;2.00;99.90;;;;;;5085147;28;20209;-79
2020/12/14 03:32:31;;;;;;;2.57;2.20;;;2.00;99.90;;;;;;5084545;28;20220;-78
2020/12/14 03:34:56;;;;;;;2.50;1.90;;;2.00;99.90;;;;;;5085033;28;20242;-80
2020/12/14 03:37:24;;;;;;;2.50;2.30;;;2.10;99.90;;;;;;5084909;28;20552;-79
2020/12/14 03:39:50;;;;;;;3.73;2.07;;;2.10;99.90;;;;;;5084541;28;20208;-79
2020/12/14 03:42:16;;;;;;;3.30;2.17;;;2.10;99.90;;;;;;5084700;28;20280;-79
2020/12/14 03:44:41;;;;;;;3.37;2.00;;;2.10;99.90;;;;;;5086111;28;20250;-79
2020/12/14 03:47:07;;;;;;;1.73;1.57;;;2.10;99.90;;;;;;5090331;28;20185;-79
2020/12/14 03:49:33;;;;;;;3.17;1.73;;;2.10;99.90;;;;;;5088647;28;20209;-79
2020/12/14 03:51:59;;;;;;;2.30;2.10;;;2.10;99.90;;;;;;5089008;28;20651;-79
2020/12/14 03:54:24;;;;;;;3.67;1.77;;;2.20;99.90;;;;;;5090406;28;20712;-80
2020/12/14 03:56:50;;;;;;;2.43;1.97;;;2.20;99.90;;;;;;5088647;28;20200;-79
2020/12/14 03:59:15;;;;;;;1.83;1.60;;;2.10;99.90;;;;;;5089962;28;20188;-79
2020/12/14 04:01:41;;;;;;;2.20;1.90;;;2.10;99.90;;;;;;5090234;28;20618;-80
2020/12/14 04:04:06;;;;;;;2.10;1.80;;;2.10;99.90;;;;;;5088979;28;20211;-79
2020/12/14 04:06:32;;;;;;;2.20;2.00;;;2.10;99.90;;;;;;5090833;28;20336;-79
2020/12/14 04:08:57;;;;;;;2.47;2.27;;;2.20;99.90;;;;;;5088609;28;20862;-79
2020/12/14 04:11:23;;;;;;;1.90;1.67;;;2.10;99.90;;;;;;5087965;28;20211;-79
2020/12/14 04:13:50;;;;;;;2.63;2.43;;;2.10;99.90;;;;;;5088625;28;20276;-78
2020/12/14 04:16:16;;;;;;;2.27;1.77;;;2.00;99.90;;;;;;5087975;28;20180;-79
2020/12/14 04:18:42;;;;;;;2.60;2.40;;;2.00;99.90;;;;;;5089083;28;20565;-78
2020/12/14 04:21:08;;;;;;;3.17;2.20;;;1.90;99.90;;;;;;5088593;28;20219;-78
2020/12/14 04:23:35;;;;;;;1.77;1.27;;;1.90;99.90;;;;;;5089475;28;20676;-78
2020/12/14 04:26:00;;;;;;;2.40;1.70;;;1.80;99.90;;;;;;5089317;28;20200;-79
2020/12/14 04:28:26;;;;;;;3.70;2.87;;;1.80;99.90;;;;;;5089435;28;20177;-79
2020/12/14 04:30:52;;;;;;;2.23;1.83;;;1.80;99.90;;;;;;5089316;28;20577;-78
2020/12/14 04:33:17;;;;;;;2.77;1.93;;;1.80;99.90;;;;;;5088814;28;20185;-79
2020/12/14 04:35:43;;;;;;;3.87;2.53;;;1.80;99.90;;;;;;5088325;28;20210;-79
2020/12/14 04:38:08;;;;;;;2.43;2.13;;;1.80;99.90;;;;;;5087699;28;20184;-79
2020/12/14 04:40:34;;;;;;;1.53;1.43;;;1.80;99.90;;;;;;5088945;28;20207;-79
2020/12/14 04:43:00;;;;;;;3.77;2.50;;;1.90;99.90;;;;;;5087238;28;20236;-78
2020/12/14 04:45:27;;;;;;;3.33;2.23;;;1.90;99.90;;;;;;5087531;28;20214;-79
2020/12/14 04:47:59;;;;;;;2.63;1.83;;;2.00;99.90;;;;;;5087829;28;20330;-78
2020/12/14 04:50:25;;;;;;;1.57;1.30;;;1.90;99.90;;;;;;5088866;28;20282;-79
2020/12/14 04:52:52;;;;;;;2.60;2.00;;;1.90;99.90;;;;;;5088921;28;20189;-79
2020/12/14 04:55:20;;;;;;;1.03;0.97;;;2.00;99.90;;;;;;5086692;28;20215;-77
2020/12/14 04:57:46;;;;;;;2.17;1.97;;;2.10;99.90;;;;;;5087156;28;20748;-78
2020/12/14 05:00:11;;;;;;;2.37;1.70;;;2.20;99.90;;;;;;5088727;28;20225;-78
2020/12/14 05:02:37;;;;;;;2.47;2.23;;;2.30;99.90;;;;;;5087070;28;20663;-78
2020/12/14 05:05:03;;;;;;;1.60;1.40;;;2.40;99.90;;;;;;5088877;28;20201;-79
2020/12/14 05:07:40;;;;;;;2.23;1.53;;;2.50;99.90;;;;;;5088500;28;20188;-79
2020/12/14 05:10:06;;;;;;;1.73;1.60;;;2.50;99.90;;;;;;5087956;28;20686;-79
2020/12/14 05:12:37;;;;;;;2.13;2.00;;;2.50;99.90;;;;;;5087193;28;20263;-78
2020/12/14 05:15:02;;;;;;;2.17;1.97;;;2.60;99.90;;;;;;5086650;28;20189;-79
2020/12/14 05:17:28;;;;;;;1.70;1.60;;;2.60;99.90;;;;;;5088179;28;20298;-77
2020/12/14 05:19:53;;;;;;;1.90;1.63;;;2.60;99.90;;;;;;5086799;28;20709;-79
2020/12/14 05:22:19;;;;;;;2.20;1.73;;;2.70;99.90;;;;;;5087868;28;20764;-78
2020/12/14 05:24:49;;;;;;;2.07;1.87;;;2.70;99.90;;;;;;5088121;28;20204;-78
2020/12/14 05:27:34;;;;;;;2.30;1.77;;;2.80;99.90;;;;;;5087935;28;20177;-78
2020/12/14 05:30:12;;;;;;;3.10;2.10;;;2.80;99.90;;;;;;5086604;28;20709;-78
2020/12/14 05:32:37;;;;;;;2.43;1.90;;;2.80;99.90;;;;;;5087749;28;20634;-78
2020/12/14 05:35:10;;;;;;;1.77;1.50;;;2.90;99.90;;;;;;5088055;28;20177;-79
2020/12/14 05:37:37;;;;;;;2.07;1.87;;;2.90;99.90;;;;;;5086738;28;20199;-78
2020/12/14 05:40:10;;;;;;;2.40;1.90;;;2.90;99.90;;;;;;5086760;28;20193;-78
2020/12/14 05:42:43;;;;;;;2.33;1.83;;;2.90;99.90;;;;;;5087340;28;20185;-78
2020/12/14 05:45:12;;;;;;;1.70;1.60;;;3.00;99.90;;;;;;5086026;28;20205;-79
2020/12/14 05:47:42;;;;;;;1.97;1.70;;;3.00;99.90;;;;;;5087285;28;20176;-78
2020/12/14 05:50:10;;;;;;;2.57;1.70;;;3.00;99.90;;;;;;5087098;28;20197;-78
2020/12/14 05:52:46;;;;;;;2.07;1.60;;;3.10;99.90;;;;;;5086969;28;20181;-79
2020/12/14 05:55:16;;;;;;;1.83;1.53;;;3.10;99.90;;;;;;5085972;28;20203;-78
2020/12/14 05:57:50;;;;;;;2.83;1.60;;;3.20;99.90;;;;;;5086553;28;20200;-78
2020/12/14 06:00:17;;;;;;;7.27;5.37;;;3.20;99.90;;;;;;5087313;28;20208;-78
2020/12/14 06:02:43;;;;;;;2.53;2.23;;;3.30;99.90;;;;;;5087509;28;20666;-79
2020/12/14 06:05:09;;;;;;;2.60;2.33;;;3.30;99.90;;;;;;5087414;28;20208;-78
2020/12/14 06:07:37;;;;;;;2.37;2.17;;;3.30;99.90;;;;;;5087492;28;20195;-79
2020/12/14 06:10:13;;;;;;;3.90;3.53;;;3.30;99.90;;;;;;5087349;28;20705;-79
2020/12/14 06:12:42;;;;;;;2.63;2.17;;;3.40;99.90;;;;;;5087962;28;20701;-78
2020/12/14 06:15:13;;;;;;;3.27;1.60;;;3.40;99.90;;;;;;5086058;28;20200;-78
2020/12/14 06:17:40;;;;;;;2.33;2.13;;;3.40;99.90;;;;;;5086105;28;20185;-78
2020/12/14 06:20:16;;;;;;;2.57;2.03;;;3.40;99.90;;;;;;5085491;28;20331;-78
2020/12/14 06:22:49;;;;;;;2.67;2.40;;;3.50;99.90;;;;;;5087071;28;20173;-78
2020/12/14 06:25:16;;;;;;;2.97;2.67;;;3.60;99.90;;;;;;5085440;28;20208;-78
2020/12/14 06:27:42;;;;;;;2.60;2.40;;;3.70;99.90;;;;;;5085888;28;20268;-79
2020/12/14 06:30:26;;;;;;;1.60;1.43;;;3.70;99.90;;;;;;5085717;28;20196;-78
2020/12/14 06:33:01;;;;;;;1.73;1.50;;;3.70;99.90;;;;;;5087101;28;20181;-79
2020/12/14 06:35:45;;;;;;;2.43;1.60;;;3.60;99.90;;;;;;5085479;28;20219;-79
2020/12/14 06:38:11;;;;;;;1.40;1.30;;;3.50;99.90;;;;;;5087075;28;20207;-79
2020/12/14 06:40:58;;;;;;;2.20;1.23;;;3.40;99.90;;;;;;5085848;28;20204;-79
2020/12/14 06:43:34;;;;;;;1.13;1.03;;;3.30;99.90;;;;;;5086336;28;20180;-78
2020/12/14 06:46:03;;;;;;;1.50;1.33;;;3.20;99.90;;;;;;5084724;28;20577;-79
2020/12/14 06:48:39;;;;;;;2.53;1.53;;;3.10;99.90;;;;;;5102047;28;20177;-79
2020/12/14 06:51:06;;;;;;;2.00;1.73;;;3.00;99.90;;;;;;5084657;28;20273;-78
2020/12/14 06:53:53;;;;;;;2.07;1.87;;;3.00;99.90;;;;;;5085688;28;20180;-79
2020/12/14 06:56:28;;;;;;;1.77;1.67;;;2.80;99.90;;;;;;5085094;28;20192;-79
2020/12/14 06:58:55;;;;;;;1.53;1.17;;;2.80;99.90;;;;;;5085564;28;20192;-79
2020/12/14 07:01:34;;;;;;;2.47;1.83;;;2.70;99.90;;;;;;5086243;28;20201;-79
2020/12/14 07:04:20;;;;;;;1.77;1.27;;;2.80;99.90;;;;;;5085678;28;20234;-81
2020/12/14 07:06:45;;;;;;;1.83;1.70;;;2.80;99.90;;;;;;5079158;28;20236;-79
2020/12/14 07:09:30;;;;;;;1.63;1.53;;;2.90;99.90;;;;;;5086050;28;20227;-79
2020/12/14 07:12:15;;;;;;;1.17;1.00;;;2.90;99.90;;;;;;5086954;28;20180;-79
2020/12/14 07:14:51;;;;;;;1.00;1.00;;;2.90;99.90;;;;;;5086850;28;20551;-79
2020/12/14 07:17:20;;;;;;;2.00;1.40;;;2.90;99.90;;;;;;5085596;28;20180;-78
2020/12/14 07:19:50;;;;;;;1.80;1.50;;;3.00;99.90;;;;;;5086377;28;20233;-78
2020/12/14 07:22:20;;;;;;;1.53;1.43;;;3.00;99.90;;;;;;5085514;28;20275;-79
2020/12/14 07:24:58;;;;;;;2.87;1.83;;;3.10;99.90;;;;;;5085399;28;20713;-79
2020/12/14 07:27:24;;;;;;;2.00;1.90;;;3.10;99.90;;;;;;5087303;28;20197;-81
2020/12/14 07:29:49;;;;;;;1.40;0.97;;;3.20;99.90;;;;;;5086807;28;20299;-79
2020/12/14 07:32:15;;;;;;;2.43;1.83;;;3.20;99.90;;;;;;5084874;28;20267;-78
2020/12/14 07:34:52;;;;;;;2.80;1.53;;;3.20;99.90;;;;;;5084599;28;20656;-78
2020/12/14 07:37:22;;;;;;;2.30;1.80;;;3.30;99.90;;;;;;5084598;28;20274;-79
2020/12/14 07:39:48;;;;;;;1.87;1.77;;;3.30;99.90;;;;;;5086506;28;20261;-79
2020/12/14 07:42:26;;;;;;;1.57;1.47;;;3.30;99.90;;;;;;5084768;28;20189;-79
2020/12/14 07:45:13;;;;;;;1.70;1.40;;;3.40;99.90;;;;;;5085089;28;20208;-80
2020/12/14 07:47:40;;;;;;;2.53;1.10;;;3.40;99.90;;;;;;5086242;28;20191;-78
2020/12/14 07:50:14;;;;;;;2.43;1.50;;;3.40;99.90;;;;;;5086128;28;20204;-77
2020/12/14 07:52:40;;;;;;;1.53;1.33;;;3.40;99.90;;;;;;5086160;28;20191;-78
2020/12/14 07:55:08;;;;;;;2.10;1.40;;;3.50;99.90;;;;;;5084783;28;20204;-79
2020/12/14 07:57:36;;;;;;;1.50;1.40;;;3.50;99.90;;;;;;5086243;28;20197;-79
2020/12/14 08:00:07;;;;;;;1.73;1.20;;;3.60;99.90;;;;;;5083628;28;20204;-80
2020/12/14 08:02:33;;;;;;;1.83;1.40;;;3.60;99.90;;;;;;5085993;28;20234;-78
2020/12/14 08:05:00;;;;;;;2.67;1.90;;;3.60;99.90;;;;;;5083890;28;20201;-79
2020/12/14 08:07:31;;;;;;;2.87;1.83;;;3.70;99.90;;;;;;5084298;28;20180;-78
2020/12/14 08:09:59;;;;;;;1.37;1.23;;;3.70;99.90;;;;;;5084344;28;20200;-79
2020/12/14 08:12:25;;;;;;;1.83;1.67;;;3.80;99.90;;;;;;5084611;28;20760;-78
2020/12/14 08:14:51;;;;;;;2.30;1.70;;;3.80;99.90;;;;;;5086141;28;20185;-78
2020/12/14 08:17:17;;;;;;;1.33;1.10;;;3.90;99.90;;;;;;5085571;28;20281;-79
2020/12/14 08:19:44;;;;;;;2.83;1.23;;;4.00;99.90;;;;;;5086753;28;20216;-81
2020/12/14 08:22:14;;;;;;;1.67;1.57;;;4.10;99.90;;;;;;5084566;28;21122;-78
2020/12/14 08:24:41;;;;;;;2.37;1.80;;;4.20;99.90;;;;;;5083555;28;20244;-78
2020/12/14 08:27:13;;;;;;;1.70;1.43;;;4.10;99.90;;;;;;5083378;28;20185;-78
2020/12/14 08:30:03;;;;;;;1.70;1.60;;;4.20;99.90;;;;;;5085628;28;20211;-79
2020/12/14 08:32:28;;;;;;;3.67;2.27;;;4.30;99.90;;;;;;5086134;28;20188;-78
2020/12/14 08:34:54;;;;;;;13.90;7.97;;;4.40;99.90;;;;;;5087836;28;20200;-80
2020/12/14 08:37:20;;;;;;;7.07;5.13;;;4.50;99.90;;;;;;5086262;28;20197;-77
2020/12/14 08:40:01;;;;;;;5.47;2.17;;;4.70;99.90;;;;;;5085111;28;20223;-76
2020/12/14 08:42:29;;;;;;;5.33;1.37;;;4.80;99.90;;;;;;5087558;28;20192;-80
2020/12/14 08:45:14;;;;;;;2.47;1.70;;;4.80;99.90;;;;;;5086942;28;20244;-79
2020/12/14 08:47:42;;;;;;;2.20;2.00;;;4.90;99.90;;;;;;5087128;28;20682;-76
2020/12/14 08:50:10;;;;;;;5.53;3.50;;;5.00;99.90;;;;;;5087418;28;20212;-75
2020/12/14 08:52:35;;;;;;;1.60;1.23;;;5.00;99.90;;;;;;5085703;28;20199;-77
2020/12/14 08:55:02;;;;;;;2.57;1.83;;;5.00;99.90;;;;;;5084007;28;20185;-81
2020/12/14 08:57:32;;;;;;;0.90;0.90;;;5.00;99.90;;;;;;5085295;28;20205;-79
2020/12/14 09:00:11;;;;;;;0.90;0.80;;;5.10;99.90;;;;;;5085178;28;20224;-79
2020/12/14 09:02:37;;;;;;;1.13;0.80;;;5.20;99.90;;;;;;5084375;28;20180;-80
2020/12/14 09:05:17;;;;;;;1.97;1.77;;;5.40;99.90;;;;;;5086002;28;20212;-79
2020/12/14 09:07:42;;;;;;;1.40;1.30;;;5.80;99.90;;;;;;5085362;28;20193;-79
2020/12/14 09:10:28;;;;;;;1.07;0.97;;;5.90;99.90;;;;;;5084899;28;20216;-79
2020/12/14 09:13:03;;;;;;;1.80;1.03;;;5.90;99.90;;;;;;5085972;28;20199;-79
2020/12/14 09:15:30;;;;;;;1.73;1.60;;;5.80;99.90;;;;;;5083863;28;20330;-79
2020/12/14 09:18:06;;;;;;;1.20;1.10;;;5.70;99.90;;;;;;5085252;28;20832;-79
2020/12/14 09:20:35;;;;;;;1.60;1.50;;;5.70;99.90;;;;;;5084486;28;20219;-80
2020/12/14 09:23:01;;;;;;;2.50;2.30;;;5.70;99.90;;;;;;5085352;28;20185;-80
2020/12/14 09:25:27;;;;;;;3.50;3.20;;;5.60;99.90;;;;;;5087580;28;20255;-80
2020/12/14 09:27:53;;;;;;;2.50;2.30;;;5.60;99.90;;;;;;5086306;28;20188;-79
2020/12/14 09:30:18;;;;;;;3.20;2.90;;;5.60;99.90;;;;;;5086203;28;20212;-80
2020/12/14 09:32:44;;;;;;;1.47;1.37;;;5.70;99.90;;;;;;5085770;28;20189;-80
2020/12/14 09:35:10;;;;;;;1.47;0.90;;;5.70;99.90;;;;;;5082019;28;20283;-79
2020/12/14 09:37:35;;;;;;;0.73;0.73;;;5.90;99.90;;;;;;5081862;28;20243;-80
2020/12/14 09:40:03;;;;;;;0.50;0.50;;;6.00;99.90;;;;;;5082584;28;20215;-80
2020/12/14 09:42:29;;;;;;;0.70;0.70;;;6.20;99.90;;;;;;5083407;28;20504;-80
2020/12/14 09:44:55;;;;;;;0.40;0.40;;;6.60;99.90;;;;;;5081883;28;20886;-81
2020/12/14 09:47:20;;;;;;;0.50;0.40;;;6.80;99.90;;;;;;5082947;28;20263;-79
2020/12/14 09:49:46;;;;;;;0.60;0.60;;;6.90;99.90;;;;;;5082090;28;20217;-79
2020/12/14 09:52:12;;;;;;;0.40;0.40;;;7.00;99.90;;;;;;5082850;28;20196;-81
2020/12/14 09:54:37;;;;;;;0.50;0.50;;;7.10;99.90;;;;;;5083089;28;20291;-80
2020/12/14 09:57:03;;;;;;;0.50;0.50;;;7.30;99.90;;;;;;5083629;28;20207;-80
2020/12/14 09:59:28;;;;;;;0.50;0.50;;;7.50;99.90;;;;;;5084399;28;20208;-80
2020/12/14 10:01:54;;;;;;;0.60;0.60;;;7.60;99.90;;;;;;5083709;28;20286;-80
2020/12/14 10:04:19;;;;;;;0.37;0.37;;;7.60;99.90;;;;;;5084071;28;20196;-81
2020/12/14 10:06:46;;;;;;;0.83;0.80;;;7.70;99.90;;;;;;5083694;28;20189;-79
2020/12/14 10:09:12;;;;;;;2.03;1.83;;;7.80;99.90;;;;;;5082201;28;20483;-79
2020/12/14 10:11:38;;;;;;;0.90;0.90;;;7.70;99.90;;;;;;5082095;28;20759;-80
2020/12/14 10:14:03;;;;;;;1.10;0.90;;;7.60;99.90;;;;;;5082192;28;20197;-79
2020/12/14 10:16:29;;;;;;;1.10;0.90;;;7.50;99.90;;;;;;5081890;28;20196;-79
2020/12/14 10:18:54;;;;;;;0.80;0.60;;;7.50;99.90;;;;;;5083493;28;20189;-80
2020/12/14 10:21:20;;;;;;;1.13;1.00;;;7.40;99.90;;;;;;5083313;28;20205;-80
2020/12/14 10:23:46;;;;;;;1.10;1.00;;;7.40;99.90;;;;;;5082025;28;20235;-80
2020/12/14 10:26:13;;;;;;;3.80;2.83;;;7.50;99.90;;;;;;5081949;28;20335;-80
2020/12/14 10:28:39;;;;;;;1.80;1.70;;;7.50;99.90;;;;;;5083634;28;20260;-79
2020/12/14 10:31:06;;;;;;;2.97;2.27;;;7.70;99.90;;;;;;5082749;28;20303;-80
2020/12/14 10:33:32;;;;;;;1.80;1.43;;;7.80;99.90;;;;;;5081839;28;20602;-80
2020/12/14 10:36:06;;;;;;;1.10;1.00;;;8.00;99.90;;;;;;5082769;28;20185;-79
2020/12/14 10:38:31;;;;;;;0.80;0.80;;;8.10;99.90;;;;;;5082181;28;20634;-80
2020/12/14 10:40:57;;;;;;;1.57;1.10;;;8.20;99.90;;;;;;5082687;28;20250;-79
2020/12/14 10:43:22;;;;;;;0.57;0.57;;;8.40;99.90;;;;;;5080845;28;20189;-80
2020/12/14 10:45:48;;;;;;;0.53;0.53;;;8.60;99.90;;;;;;5082678;28;20220;-80
2020/12/14 10:48:13;;;;;;;0.30;0.30;;;8.80;99.90;;;;;;5081835;28;20196;-79
2020/12/14 10:50:39;;;;;;;0.30;0.30;;;8.90;99.90;;;;;;5081703;28;20204;-80
2020/12/14 10:53:05;;;;;;;1.13;0.40;;;8.90;99.90;;;;;;5082471;28;20216;-80
2020/12/14 10:55:31;;;;;;;0.60;0.60;;;9.00;99.90;;;;;;5083825;28;20616;-79
2020/12/14 10:57:56;;;;;;;1.77;1.13;;;9.00;99.90;;;;;;5085290;28;20204;-80
2020/12/14 11:00:23;;;;;;;0.80;0.57;;;8.90;99.90;;;;;;5083794;28;20208;-80
2020/12/14 11:02:49;;;;;;;0.50;0.50;;;8.70;99.90;;;;;;5085282;28;20227;-80
2020/12/14 11:05:14;;;;;;;0.63;0.50;;;8.80;99.90;;;;;;5083919;28;20262;-82
2020/12/14 11:07:40;;;;;;;0.70;0.60;;;8.80;99.90;;;;;;5084814;28;20192;-77
2020/12/14 11:10:07;;;;;;;0.50;0.50;;;8.70;99.90;;;;;;5087194;28;20212;-79
2020/12/14 11:12:33;;;;;;;0.50;0.50;;;8.60;99.90;;;;;;5086366;28;20261;-75
2020/12/14 11:14:59;;;;;;;0.73;0.73;;;8.60;99.90;;;;;;5085061;28;20916;-75
2020/12/14 11:17:25;;;;;;;0.53;0.53;;;8.60;99.90;;;;;;5089117;28;20188;-75
2020/12/14 11:19:50;;;;;;;0.50;0.50;;;8.70;99.90;;;;;;5088705;28;20347;-78
2020/12/14 11:22:16;;;;;;;2.40;2.20;;;8.70;99.90;;;;;;5089336;28;20192;-79
2020/12/14 11:24:42;;;;;;;1.40;1.30;;;8.70;99.90;;;;;;5087553;28;20201;-77
2020/12/14 11:27:08;;;;;;;1.17;0.90;;;8.80;99.90;;;;;;5086872;28;20203;-77
2020/12/14 11:29:33;;;;;;;3.20;2.63;;;8.80;99.90;;;;;;5084281;28;20185;-78
2020/12/14 11:31:59;;;;;;;0.50;0.50;;;8.80;99.90;;;;;;5085926;28;20191;-79
2020/12/14 11:34:24;;;;;;;0.73;0.53;;;8.80;99.90;;;;;;5086501;28;20552;-77
2020/12/14 11:36:51;;;;;;;0.97;0.50;;;8.70;99.90;;;;;;5085736;28;20275;-77
2020/12/14 11:39:16;;;;;;;1.20;1.10;;;8.60;99.90;;;;;;5086784;28;20204;-78
2020/12/14 11:41:48;;;;;;;1.00;0.80;;;8.70;99.90;;;;;;5085318;28;20189;-78
2020/12/14 11:44:15;;;;;;;1.03;0.40;;;8.70;99.90;;;;;;5086562;28;20176;-77
2020/12/14 11:46:41;;;;;;;0.40;0.40;;;8.70;99.90;;;;;;5086674;28;20189;-78
2020/12/14 11:49:07;;;;;;;0.70;0.70;;;8.80;99.90;;;;;;5093781;28;20196;-77
2020/12/14 11:51:36;;;;;;;2.20;1.90;;;8.70;99.90;;;;;;5097202;28;20698;-76
2020/12/14 11:54:02;;;;;;;1.10;1.00;;;8.60;99.90;;;;;;5094412;28;20196;-77
2020/12/14 11:56:27;;;;;;;0.67;0.67;;;8.60;99.90;;;;;;5085939;28;20376;-79
2020/12/14 11:58:53;;;;;;;0.90;0.90;;;8.60;99.90;;;;;;5085943;28;20193;-78
2020/12/14 12:01:22;;;;;;;1.53;0.90;;;8.50;99.90;;;;;;5085370;28;20213;-79
2020/12/14 12:03:48;;;;;;;3.57;3.27;;;8.50;99.90;;;;;;5085319;28;20274;-79
2020/12/14 12:06:14;;;;;;;2.27;1.97;;;8.50;99.90;;;;;;5085667;28;20208;-77
2020/12/14 12:08:40;;;;;;;1.23;1.13;;;8.50;99.90;;;;;;5088501;28;20188;-79
2020/12/14 12:11:05;;;;;;;5.17;4.03;;;8.50;99.90;;;;;;5088266;28;20657;-78
2020/12/14 12:13:32;;;;;;;2.60;1.43;;;8.50;99.90;;;;;;5087466;28;20178;-79
2020/12/14 12:15:58;;;;;;;2.63;1.07;;;8.50;99.90;;;;;;5086418;28;20249;-78
2020/12/14 12:18:24;;;;;;;1.53;1.30;;;8.40;99.90;;;;;;5088197;28;20252;-79
2020/12/14 12:20:50;;;;;;;7.13;4.30;;;8.40;99.90;;;;;;5088159;28;20218;-79
2020/12/14 12:23:15;;;;;;;2.63;1.93;;;8.40;99.90;;;;;;5087930;28;20196;-78
2020/12/14 12:25:41;;;;;;;8.70;4.30;;;8.50;99.90;;;;;;5089134;28;20204;-79
2020/12/14 12:28:06;;;;;;;4.27;2.70;;;8.50;99.90;;;;;;5090120;28;20195;-76
2020/12/14 12:30:34;;;;;;;2.60;2.00;;;8.50;99.90;;;;;;5090871;28;20205;-78
2020/12/14 12:33:00;;;;;;;10.57;6.17;;;8.50;99.90;;;;;;5091019;28;20177;-82
2020/12/14 12:35:26;;;;;;;1.67;1.50;;;8.50;99.90;;;;;;5090410;28;20210;-78
2020/12/14 12:37:51;;;;;;;3.10;2.63;;;8.40;99.90;;;;;;5091187;28;20710;-79
2020/12/14 12:40:17;;;;;;;21.87;13.53;;;8.40;99.90;;;;;;5090501;28;21144;-79
2020/12/14 12:42:42;;;;;;;5.50;4.33;;;8.50;99.90;;;;;;5091243;28;20242;-78
2020/12/14 12:45:08;;;;;;;2.87;2.13;;;8.50;99.90;;;;;;5089291;28;20700;-77
2020/12/14 12:47:33;;;;;;;1.57;1.00;;;8.50;99.90;;;;;;5090905;28;20724;-79
2020/12/14 12:49:59;;;;;;;1.10;0.60;;;8.50;99.90;;;;;;5090436;28;20216;-78
2020/12/14 12:52:24;;;;;;;1.17;1.07;;;8.50;99.90;;;;;;5090847;28;20271;-79
2020/12/14 12:54:50;;;;;;;0.50;0.50;;;8.50;99.90;;;;;;5090342;28;20306;-79
2020/12/14 12:57:16;;;;;;;0.47;0.47;;;8.40;99.90;;;;;;5091162;28;20215;-77
2020/12/14 12:59:42;;;;;;;0.70;0.60;;;8.40;99.90;;;;;;5090424;28;20216;-79